createdAt,value
2018-04-18T00:00:17.630Z,97.08
2018-04-18T00:01:17.673Z,97.27
2018-04-18T00:02:17.608Z,97.17
2018-04-18T00:03:17.601Z,97.17
2018-04-18T00:04:17.597Z,96.98
2018-04-18T00:05:17.585Z,97.17
2018-04-18T00:06:17.574Z,97.08
2018-04-18T00:07:17.577Z,97.36
2018-04-18T00:08:17.562Z,97.27
2018-04-18T00:09:17.549Z,97.55
2018-04-18T00:10:17.542Z,97.46
2018-04-18T00:11:17.533Z,97.46
2018-04-18T00:12:17.524Z,97.27
2018-04-18T00:13:17.517Z,97.36
2018-04-18T00:14:17.509Z,97.27
2018-04-18T00:15:17.501Z,97.27
2018-04-18T00:16:17.489Z,97.27
2018-04-18T00:17:17.482Z,97.36
2018-04-18T00:18:17.476Z,97.46
2018-04-18T00:19:17.469Z,97.08
2018-04-18T00:20:17.454Z,97.08
2018-04-18T00:21:17.445Z,97.36
2018-04-18T00:22:17.438Z,97.08
2018-04-18T00:23:17.428Z,97.08
2018-04-18T00:24:17.172Z,97.27
2018-04-18T00:25:17.420Z,96.98
2018-04-18T00:26:17.403Z,97.08
2018-04-18T00:27:17.397Z,97.08
2018-04-18T00:28:17.385Z,96.98
2018-04-18T00:29:17.630Z,97.08
2018-04-18T00:30:17.380Z,97.08
2018-04-18T00:31:17.360Z,97.17
2018-04-18T00:32:17.365Z,97.46
2018-04-18T00:33:17.348Z,97.27
2018-04-18T00:34:17.335Z,97.27
2018-04-18T00:35:17.074Z,97.36
2018-04-18T00:36:17.318Z,97.27
2018-04-18T00:37:17.377Z,97.27
2018-04-18T00:38:17.309Z,97.27
2018-04-18T00:39:17.290Z,96.89
2018-04-18T00:40:17.281Z,97.27
2018-04-18T00:41:17.280Z,97.08
2018-04-18T00:42:17.265Z,97.36
2018-04-18T00:43:17.256Z,97.27
2018-04-18T00:44:17.249Z,97.17
2018-04-18T00:45:17.240Z,97.17
2018-04-18T00:46:16.977Z,97.27
2018-04-18T00:47:17.225Z,97.08
2018-04-18T00:48:17.212Z,97.08
2018-04-18T00:49:17.203Z,97.17
2018-04-18T00:50:17.205Z,97.08
2018-04-18T00:51:17.186Z,97.22
2018-04-18T00:52:17.177Z,97.17
2018-04-18T00:53:17.169Z,97.13
2018-04-18T00:54:17.160Z,96.94
2018-04-18T00:55:17.151Z,97.08
2018-04-18T00:56:17.142Z,96.84
2018-04-18T00:57:17.135Z,97.08
2018-04-18T00:58:17.130Z,97.03
2018-04-18T00:59:17.119Z,97.03
2018-04-18T01:00:17.108Z,96.84
2018-04-18T01:01:16.847Z,96.84
2018-04-18T01:02:17.091Z,96.94
2018-04-18T01:03:17.082Z,97.03
2018-04-18T01:04:17.073Z,97.03
2018-04-18T01:05:17.065Z,97.03
2018-04-18T01:06:17.060Z,96.74
2018-04-18T01:07:16.794Z,97.03
2018-04-18T01:08:17.042Z,96.84
2018-04-18T01:09:17.034Z,96.94
2018-04-18T01:10:17.021Z,96.84
2018-04-18T01:11:16.758Z,96.74
2018-04-18T01:12:17.011Z,97.03
2018-04-18T01:13:16.998Z,96.84
2018-04-18T01:14:16.984Z,96.55
2018-04-18T01:15:16.977Z,96.55
2018-04-18T01:16:16.970Z,96.84
2018-04-18T01:17:17.016Z,96.55
2018-04-18T01:18:16.955Z,96.94
2018-04-18T01:19:16.941Z,96.74
2018-04-18T01:20:16.932Z,97.22
2018-04-18T01:21:16.934Z,96.84
2018-04-18T01:22:16.916Z,96.84
2018-04-18T01:23:16.904Z,96.55
2018-04-18T01:24:16.894Z,96.74
2018-04-18T01:25:16.886Z,96.74
2018-04-18T01:26:16.883Z,96.84
2018-04-18T01:27:16.870Z,96.84
2018-04-18T01:28:16.867Z,96.74
2018-04-18T01:29:16.852Z,96.74
2018-04-18T01:30:16.845Z,96.65
2018-04-18T01:31:16.835Z,96.65
2018-04-18T01:32:16.827Z,96.55
2018-04-18T01:33:16.824Z,96.65
2018-04-18T01:34:16.807Z,97.03
2018-04-18T01:35:16.797Z,96.74
2018-04-18T01:36:16.787Z,96.55
2018-04-18T01:37:16.780Z,97.03
2018-04-18T01:38:16.774Z,96.74
2018-04-18T01:39:16.764Z,96.74
2018-04-18T01:40:16.753Z,96.74
2018-04-18T01:41:16.743Z,96.55
2018-04-18T01:42:16.735Z,96.55
2018-04-18T01:43:16.728Z,96.55
2018-04-18T01:44:16.716Z,96.55
2018-04-18T01:45:16.455Z,97.03
2018-04-18T01:46:16.699Z,96.36
2018-04-18T01:47:16.691Z,96.55
2018-04-18T01:48:16.692Z,96.65
2018-04-18T01:49:16.677Z,97.22
2018-04-18T01:50:16.667Z,96.65
2018-04-18T01:51:16.655Z,96.84
2018-04-18T01:52:16.645Z,96.55
2018-04-18T01:53:16.635Z,97.31
2018-04-18T01:54:16.628Z,96.55
2018-04-18T01:55:16.622Z,96.55
2018-04-18T01:56:16.609Z,96.55
2018-04-18T01:57:16.610Z,96.55
2018-04-18T01:58:16.596Z,96.84
2018-04-18T01:59:16.589Z,97.5
2018-04-18T02:00:16.320Z,97.13
2018-04-18T02:01:16.568Z,97.31
2018-04-18T02:02:16.561Z,97.22
2018-04-18T02:03:16.550Z,97.03
2018-04-18T02:04:16.548Z,96.36
2018-04-18T02:05:16.526Z,96.55
2018-04-18T02:06:16.520Z,96.65
2018-04-18T02:07:16.510Z,96.55
2018-04-18T02:08:16.508Z,96.26
2018-04-18T02:09:16.493Z,96.74
2018-04-18T02:10:16.488Z,96.26
2018-04-18T02:11:16.473Z,96.46
2018-04-18T02:12:16.211Z,96.6
2018-04-18T02:13:16.453Z,97.17
2018-04-18T02:14:16.448Z,97.41
2018-04-18T02:15:16.433Z,96.79
2018-04-18T02:16:16.425Z,96.36
2018-04-18T02:17:16.422Z,97.17
2018-04-18T02:18:16.412Z,96.84
2018-04-18T02:19:16.398Z,97.08
2018-04-18T02:20:16.389Z,96.6
2018-04-18T02:21:16.380Z,97.17
2018-04-18T02:22:16.372Z,97.17
2018-04-18T02:23:16.362Z,97.17
2018-04-18T02:24:16.353Z,97.17
2018-04-18T02:25:16.346Z,96.79
2018-04-18T02:26:16.339Z,96.98
2018-04-18T02:27:16.332Z,96.31
2018-04-18T02:28:16.315Z,96.31
2018-04-18T02:29:16.307Z,96.69
2018-04-18T02:30:16.297Z,97.17
2018-04-18T02:31:16.294Z,96.79
2018-04-18T02:32:16.296Z,97.36
2018-04-18T02:33:16.272Z,97.27
2018-04-18T02:34:16.520Z,97.27
2018-04-18T02:35:16.254Z,97.36
2018-04-18T02:36:16.243Z,97.36
2018-04-18T02:37:16.232Z,97.36
2018-04-18T02:38:16.223Z,97.64
2018-04-18T02:39:16.214Z,97.36
2018-04-18T02:40:16.208Z,97.17
2018-04-18T02:41:16.200Z,96.89
2018-04-18T02:42:16.187Z,96.89
2018-04-18T02:43:15.925Z,96.69
2018-04-18T02:44:16.173Z,96.12
2018-04-18T02:45:16.168Z,96.69
2018-04-18T02:46:16.153Z,96.79
2018-04-18T02:47:16.143Z,97.08
2018-04-18T02:48:16.130Z,96.89
2018-04-18T02:49:16.121Z,96.5
2018-04-18T02:50:16.110Z,96.79
2018-04-18T02:51:16.102Z,96.89
2018-04-18T02:52:16.094Z,97.08
2018-04-18T02:53:16.090Z,96.89
2018-04-18T02:54:16.073Z,96.5
2018-04-18T02:55:16.065Z,96.41
2018-04-18T02:56:16.065Z,96.5
2018-04-18T02:57:15.793Z,96.41
2018-04-18T02:58:16.052Z,96.69
2018-04-18T02:59:16.029Z,96.31
2018-04-18T03:00:16.017Z,96.41
2018-04-18T03:01:16.015Z,96.41
2018-04-18T03:02:16.003Z,96.6
2018-04-18T03:03:15.989Z,96.41
2018-04-18T03:04:15.982Z,96.69
2018-04-18T03:05:16.221Z,96.6
2018-04-18T03:06:15.963Z,96.41
2018-04-18T03:07:15.952Z,96.69
2018-04-18T03:08:15.947Z,96.41
2018-04-18T03:09:15.938Z,96.5
2018-04-18T03:10:15.926Z,96.5
2018-04-18T03:11:15.917Z,96.22
2018-04-18T03:12:15.911Z,96.31
2018-04-18T03:13:15.897Z,96.41
2018-04-18T03:14:15.893Z,96.69
2018-04-18T03:15:15.879Z,96.31
2018-04-18T03:16:15.870Z,96.69
2018-04-18T03:17:15.860Z,96.69
2018-04-18T03:18:15.862Z,96.31
2018-04-18T03:19:15.845Z,97.08
2018-04-18T03:20:15.580Z,96.31
2018-04-18T03:21:15.824Z,96.31
2018-04-18T03:22:15.817Z,96.6
2018-04-18T03:23:15.804Z,96.41
2018-04-18T03:24:15.800Z,96.31
2018-04-18T03:25:15.785Z,96.41
2018-04-18T03:26:15.777Z,96.41
2018-04-18T03:27:15.772Z,96.41
2018-04-18T03:28:15.757Z,96.41
2018-04-18T03:29:15.748Z,96.31
2018-04-18T03:30:15.746Z,96.41
2018-04-18T03:31:15.733Z,96.41
2018-04-18T03:32:15.724Z,96.31
2018-04-18T03:33:15.719Z,96.31
2018-04-18T03:34:15.703Z,96.6
2018-04-18T03:35:15.695Z,96.89
2018-04-18T03:36:15.684Z,96.98
2018-04-18T03:37:15.674Z,96.98
2018-04-18T03:38:15.665Z,96.98
2018-04-18T03:39:15.655Z,96.69
2018-04-18T03:40:15.646Z,96.69
2018-04-18T03:41:15.636Z,97.08
2018-04-18T03:42:15.385Z,96.69
2018-04-18T03:43:15.623Z,96.69
2018-04-18T03:44:15.613Z,96.41
2018-04-18T03:45:15.605Z,96.31
2018-04-18T03:46:15.594Z,96.31
2018-04-18T03:47:15.327Z,96.69
2018-04-18T03:48:15.575Z,96.31
2018-04-18T03:49:15.567Z,96.41
2018-04-18T03:50:15.564Z,96.31
2018-04-18T03:51:15.549Z,96.41
2018-04-18T03:52:15.532Z,96.6
2018-04-18T03:53:15.523Z,96.6
2018-04-18T03:54:15.514Z,96.41
2018-04-18T03:55:15.504Z,96.41
2018-04-18T03:56:15.497Z,96.31
2018-04-18T03:57:15.490Z,96.41
2018-04-18T03:58:15.479Z,96.98
2018-04-18T03:59:15.467Z,96.98
2018-04-18T04:00:15.205Z,97.08
2018-04-18T04:01:15.451Z,96.5
2018-04-18T04:02:15.440Z,96.6
2018-04-18T04:03:15.440Z,96.89
2018-04-18T04:04:15.424Z,96.79
2018-04-18T04:05:15.414Z,96.89
2018-04-18T04:06:15.149Z,96.79
2018-04-18T04:07:15.394Z,96.98
2018-04-18T04:08:15.383Z,96.69
2018-04-18T04:09:15.372Z,96.98
2018-04-18T04:10:15.369Z,96.98
2018-04-18T04:11:15.355Z,96.98
2018-04-18T04:12:15.345Z,96.98
2018-04-18T04:13:15.335Z,96.89
2018-04-18T04:14:15.325Z,96.41
2018-04-18T04:15:15.322Z,96.22
2018-04-18T04:16:15.308Z,96.22
2018-04-18T04:17:15.297Z,96.46
2018-04-18T04:18:15.290Z,96.17
2018-04-18T04:19:15.286Z,96.46
2018-04-18T04:20:15.271Z,96.74
2018-04-18T04:21:15.261Z,96.74
2018-04-18T04:22:15.255Z,96.46
2018-04-18T04:23:14.990Z,96.55
2018-04-18T04:24:15.235Z,96.84
2018-04-18T04:25:15.226Z,96.55
2018-04-18T04:26:15.223Z,96.36
2018-04-18T04:27:15.208Z,96.46
2018-04-18T04:28:15.199Z,96.6
2018-04-18T04:29:15.189Z,96.31
2018-04-18T04:30:15.186Z,96.22
2018-04-18T04:31:15.175Z,96.31
2018-04-18T04:32:14.910Z,95.94
2018-04-18T04:33:15.155Z,95.75
2018-04-18T04:34:14.893Z,95.94
2018-04-18T04:35:15.142Z,96.08
2018-04-18T04:36:15.129Z,96.08
2018-04-18T04:37:15.121Z,96.17
2018-04-18T04:38:15.113Z,96.27
2018-04-18T04:39:15.105Z,95.98
2018-04-18T04:40:15.099Z,95.89
2018-04-18T04:41:15.093Z,96.03
2018-04-18T04:42:15.081Z,95.46
2018-04-18T04:43:15.079Z,95.65
2018-04-18T04:44:15.066Z,95.65
2018-04-18T04:45:15.058Z,95.46
2018-04-18T04:46:15.051Z,95.32
2018-04-18T04:47:14.793Z,95.32
2018-04-18T04:48:15.049Z,95.03
2018-04-18T04:49:14.775Z,95.22
2018-04-18T04:50:15.020Z,94.98
2018-04-18T04:51:15.014Z,94.79
2018-04-18T04:52:15.010Z,94.89
2018-04-18T04:53:14.750Z,94.89
2018-04-18T04:54:14.998Z,95.03
2018-04-18T04:55:14.987Z,94.27
2018-04-18T04:56:14.982Z,94.56
2018-04-18T04:57:14.723Z,94.27
2018-04-18T04:58:14.986Z,94.79
2018-04-18T04:59:14.963Z,94.41
2018-04-18T05:00:14.968Z,93.93
2018-04-18T05:01:14.953Z,94.22
2018-04-18T05:02:14.951Z,94.46
2018-04-18T05:03:14.941Z,93.7
2018-04-18T05:04:14.949Z,93.88
2018-04-18T05:05:14.932Z,93.6
2018-04-18T05:06:14.925Z,93.88
2018-04-18T05:07:15.323Z,93.84
2018-04-18T05:08:14.661Z,93.45
2018-04-18T05:09:14.910Z,93.45
2018-04-18T05:10:14.907Z,92.59
2018-04-18T05:11:14.901Z,92.88
2018-04-18T05:12:14.644Z,92.79
2018-04-18T05:13:14.636Z,91.93
2018-04-18T05:14:14.887Z,92.11
2018-04-18T05:15:14.879Z,91.68
2018-04-18T05:16:14.873Z,91.49
2018-04-18T05:17:14.872Z,91.3
2018-04-18T05:18:14.871Z,90.48
2018-04-18T05:19:14.870Z,90.39
2018-04-18T05:20:14.860Z,89.34
2018-04-18T05:21:14.642Z,89.48
2018-04-18T05:22:14.597Z,89
2018-04-18T05:23:14.845Z,87.99
2018-04-18T05:24:14.845Z,87.8
2018-04-18T05:25:14.836Z,87.51
2018-04-18T05:26:14.833Z,87.27
2018-04-18T05:27:14.831Z,86.88
2018-04-18T05:28:14.827Z,86.31
2018-04-18T05:29:14.828Z,85.97
2018-04-18T05:30:14.823Z,85.68
2018-04-18T05:31:14.818Z,85.11
2018-04-18T05:32:14.815Z,84.48
2018-04-18T05:33:14.876Z,84.77
2018-04-18T05:34:14.814Z,84.09
2018-04-18T05:35:14.807Z,83.94
2018-04-18T05:36:14.807Z,83.75
2018-04-18T05:37:14.833Z,83.08
2018-04-18T05:38:14.807Z,83.03
2018-04-18T05:39:14.798Z,82.93
2018-04-18T05:40:14.797Z,81.82
2018-04-18T05:41:15.049Z,81.72
2018-04-18T05:42:14.798Z,81.76
2018-04-18T05:43:14.794Z,80.99
2018-04-18T05:44:14.539Z,80.04
2018-04-18T05:45:14.587Z,79.4
2018-04-18T05:46:14.540Z,79.15
2018-04-18T05:47:15.200Z,78.67
2018-04-18T05:48:14.804Z,77.94
2018-04-18T05:49:14.790Z,78.28
2018-04-18T05:50:14.792Z,77.46
2018-04-18T05:51:14.794Z,77.01
2018-04-18T05:52:14.539Z,76.44
2018-04-18T05:53:14.541Z,75.57
2018-04-18T05:54:14.799Z,75.23
2018-04-18T05:55:14.592Z,74.74
2018-04-18T05:56:14.795Z,73.91
2018-04-18T05:57:14.804Z,72.95
2018-04-18T05:58:14.802Z,72.47
2018-04-18T05:59:14.549Z,71.83
2018-04-18T06:00:14.814Z,71.92
2018-04-18T06:01:14.565Z,70.76
2018-04-18T06:02:14.807Z,70.42
2018-04-18T06:03:14.558Z,70.32
2018-04-18T06:04:14.815Z,69.74
2018-04-18T06:05:14.821Z,69.1
2018-04-18T06:06:15.008Z,68.62
2018-04-18T06:07:14.823Z,68.23
2018-04-18T06:08:14.573Z,67.59
2018-04-18T06:09:14.828Z,67.01
2018-04-18T06:10:14.889Z,66.91
2018-04-18T06:11:14.919Z,65.59
2018-04-18T06:12:15.647Z,65.11
2018-04-18T06:13:14.857Z,64.56
2018-04-18T06:14:14.848Z,63.73
2018-04-18T06:15:14.854Z,63.63
2018-04-18T06:16:14.868Z,63.05
2018-04-18T06:17:14.866Z,61.79
2018-04-18T06:18:14.867Z,61.53
2018-04-18T06:19:15.055Z,61.24
2018-04-18T06:20:14.881Z,60.21
2018-04-18T06:22:14.891Z,59.46
2018-04-18T06:23:14.895Z,58.59
2018-04-18T06:24:14.901Z,58.11
2018-04-18T06:25:14.909Z,57.84
2018-04-18T06:26:14.913Z,56.68
2018-04-18T06:27:14.999Z,56.61
2018-04-18T06:28:14.925Z,55.93
2018-04-18T06:29:14.931Z,55.28
2018-04-18T06:30:14.693Z,55.08
2018-04-18T06:31:14.949Z,54.24
2018-04-18T06:32:14.963Z,53.85
2018-04-18T06:33:14.969Z,53.27
2018-04-18T06:34:14.970Z,54.27
2018-04-18T06:35:14.980Z,53.1
2018-04-18T06:36:14.737Z,52.33
2018-04-18T06:37:14.997Z,51.87
2018-04-18T06:38:14.999Z,51.28
2018-04-18T06:39:15.008Z,51.11
2018-04-18T06:40:14.771Z,50.73
2018-04-18T06:41:15.026Z,50.46
2018-04-18T06:42:14.798Z,49.87
2018-04-18T06:43:15.293Z,48.71
2018-04-18T06:44:15.056Z,48.61
2018-04-18T06:45:15.070Z,48.25
2018-04-18T06:46:15.112Z,48.15
2018-04-18T06:47:15.083Z,47.56
2018-04-18T06:48:15.102Z,47.69
2018-04-18T06:49:15.099Z,47.1
2018-04-18T06:50:15.108Z,47.22
2018-04-18T06:51:15.186Z,46.51
2018-04-18T06:52:15.166Z,46.25
2018-04-18T06:53:15.138Z,46.05
2018-04-18T06:54:15.168Z,45.67
2018-04-18T06:55:15.164Z,45.2
2018-04-18T06:56:14.916Z,44.93
2018-04-18T06:57:14.923Z,44.54
2018-04-18T06:58:15.188Z,44.15
2018-04-18T06:59:15.196Z,43.88
2018-04-18T07:00:15.207Z,43.29
2018-04-18T07:01:15.217Z,42.51
2018-04-18T07:02:15.238Z,42.05
2018-04-18T07:03:15.247Z,42.24
2018-04-18T07:04:15.254Z,41.75
2018-04-18T07:05:15.011Z,41.75
2018-04-18T07:06:15.284Z,41.75
2018-04-18T07:07:15.285Z,41.46
2018-04-18T07:08:15.296Z,41.09
2018-04-18T07:09:15.051Z,40.48
2018-04-18T07:10:15.322Z,40.5
2018-04-18T07:11:15.450Z,40.41
2018-04-18T07:12:15.347Z,40.31
2018-04-18T07:13:15.376Z,40.23
2018-04-18T07:14:15.613Z,39.84
2018-04-18T07:15:15.380Z,39.26
2018-04-18T07:16:15.381Z,39.45
2018-04-18T07:17:15.148Z,38.98
2018-04-18T07:18:15.409Z,38.98
2018-04-18T07:19:15.425Z,38.89
2018-04-18T07:20:15.429Z,38.61
2018-04-18T07:21:15.447Z,38.32
2018-04-18T07:22:15.452Z,37.83
2018-04-18T07:23:15.219Z,37.73
2018-04-18T07:24:15.478Z,37.55
2018-04-18T07:25:15.235Z,37.45
2018-04-18T07:26:15.505Z,37.35
2018-04-18T07:27:15.522Z,37.45
2018-04-18T07:28:15.535Z,37.55
2018-04-18T07:29:15.555Z,37.45
2018-04-18T07:30:16.819Z,37.06
2018-04-18T07:31:15.557Z,36.47
2018-04-18T07:32:15.320Z,36.96
2018-04-18T07:33:15.593Z,36.47
2018-04-18T07:34:15.362Z,36.38
2018-04-18T07:35:15.614Z,36.38
2018-04-18T07:36:15.619Z,36.77
2018-04-18T07:37:15.632Z,36.49
2018-04-18T07:38:15.643Z,36.2
2018-04-18T07:39:15.657Z,36.59
2018-04-18T07:40:15.417Z,35.81
2018-04-18T07:41:15.684Z,35.42
2018-04-18T07:42:15.705Z,35.32
2018-04-18T07:44:15.726Z,34.84
2018-04-18T07:45:15.736Z,35.04
2018-04-18T07:46:15.754Z,34.45
2018-04-18T07:47:15.764Z,34.26
2018-04-18T07:48:15.801Z,34.65
2018-04-18T07:49:15.795Z,34.45
2018-04-18T07:50:15.556Z,33.48
2018-04-18T07:51:15.572Z,34.06
2018-04-18T07:52:15.851Z,33.67
2018-04-18T07:53:15.854Z,33.58
2018-04-18T07:54:15.878Z,33.18
2018-04-18T07:55:15.876Z,32.2
2018-04-18T07:56:15.896Z,32.3
2018-04-18T07:57:15.909Z,32.4
2018-04-18T07:58:15.923Z,32.97
2018-04-18T07:59:15.942Z,32.97
2018-04-18T08:00:15.699Z,33.09
2018-04-18T08:01:15.711Z,31.99
2018-04-18T08:02:15.983Z,32.58
2018-04-18T08:03:15.996Z,32.87
2018-04-18T08:04:16.052Z,32.7
2018-04-18T08:05:16.045Z,32.1
2018-04-18T08:06:16.051Z,31.52
2018-04-18T08:07:15.830Z,32.4
2018-04-18T08:08:16.072Z,31.42
2018-04-18T08:09:16.104Z,32.29
2018-04-18T08:10:16.118Z,32.48
2018-04-18T08:11:16.148Z,32.48
2018-04-18T08:12:16.162Z,33.17
2018-04-18T08:13:16.169Z,33.07
2018-04-18T08:14:16.181Z,33.75
2018-04-18T08:15:16.268Z,33.95
2018-04-18T08:16:16.203Z,33.36
2018-04-18T08:17:16.428Z,33.26
2018-04-18T08:18:15.973Z,33.07
2018-04-18T08:19:16.255Z,33.45
2018-04-18T08:20:16.275Z,33.64
2018-04-18T08:21:16.285Z,33.34
2018-04-18T08:22:16.283Z,33.43
2018-04-18T08:23:16.289Z,33.43
2018-04-18T08:24:16.315Z,34.01
2018-04-18T08:25:16.326Z,34.78
2018-04-18T08:26:16.343Z,34.68
2018-04-18T08:27:16.335Z,35.45
2018-04-18T08:28:16.341Z,35.04
2018-04-18T08:29:16.344Z,35.82
2018-04-18T08:30:16.354Z,36.49
2018-04-18T08:31:16.369Z,36.57
2018-04-18T08:32:16.139Z,36.18
2018-04-18T08:33:16.393Z,36.94
2018-04-18T08:34:16.171Z,37.02
2018-04-18T08:35:16.409Z,37.48
2018-04-18T08:36:16.430Z,38.44
2018-04-18T08:37:16.438Z,39
2018-04-18T08:38:16.443Z,40.06
2018-04-18T08:39:16.461Z,41.1
2018-04-18T08:40:16.472Z,41.1
2018-04-18T08:41:16.478Z,41.18
2018-04-18T08:42:16.224Z,41.36
2018-04-18T08:43:16.491Z,42.13
2018-04-18T08:44:16.489Z,42.89
2018-04-18T08:45:16.497Z,43.16
2018-04-18T08:46:16.263Z,43.74
2018-04-18T08:47:16.527Z,44.4
2018-04-18T08:48:16.774Z,44.68
2018-04-18T08:49:16.270Z,45.17
2018-04-18T08:50:16.529Z,45.92
2018-04-18T08:51:16.536Z,46.8
2018-04-18T08:52:16.539Z,47.09
2018-04-18T08:53:16.546Z,47.45
2018-04-18T08:54:16.297Z,47.84
2018-04-18T08:55:16.555Z,48.52
2018-04-18T08:56:16.559Z,48.71
2018-04-18T08:57:16.564Z,48.59
2018-04-18T08:58:16.571Z,48.2
2018-04-18T08:59:16.572Z,48.3
2018-04-18T09:00:16.576Z,48.69
2018-04-18T09:01:16.579Z,49.54
2018-04-18T09:02:16.650Z,49.82
2018-04-18T09:03:16.334Z,50.02
2018-04-18T09:04:16.596Z,49.82
2018-04-18T09:05:16.606Z,50.18
2018-04-18T09:06:16.597Z,50.67
2018-04-18T09:07:16.621Z,50.76
2018-04-18T09:08:16.601Z,51.44
2018-04-18T09:09:16.352Z,50.57
2018-04-18T09:10:16.608Z,50.96
2018-04-18T09:11:16.617Z,51.83
2018-04-18T09:12:16.657Z,51.83
2018-04-18T09:13:16.620Z,51.93
2018-04-18T09:14:16.618Z,51.93
2018-04-18T09:15:16.624Z,52.09
2018-04-18T09:16:16.639Z,52.87
2018-04-18T09:17:16.637Z,53.35
2018-04-18T09:18:16.376Z,54.32
2018-04-18T09:19:16.882Z,54.61
2018-04-18T09:20:16.636Z,54.03
2018-04-18T09:21:16.634Z,53.25
2018-04-18T09:22:16.638Z,53.71
2018-04-18T09:23:16.648Z,54.19
2018-04-18T09:24:16.647Z,54.87
2018-04-18T09:25:16.643Z,54.97
2018-04-18T09:26:16.399Z,54
2018-04-18T09:27:16.645Z,54.49
2018-04-18T09:28:16.657Z,53.61
2018-04-18T09:29:16.653Z,53.91
2018-04-18T09:30:16.691Z,54.39
2018-04-18T09:31:16.662Z,54.29
2018-04-18T09:32:16.656Z,54.77
2018-04-18T09:33:16.671Z,55.83
2018-04-18T09:34:16.662Z,56.03
2018-04-18T09:35:16.664Z,55.55
2018-04-18T09:36:16.680Z,55.65
2018-04-18T09:37:16.415Z,55.83
2018-04-18T09:38:16.669Z,55.83
2018-04-18T09:39:16.667Z,55.65
2018-04-18T09:40:16.673Z,55.55
2018-04-18T09:41:16.685Z,55.83
2018-04-18T09:42:16.708Z,55.16
2018-04-18T09:43:16.700Z,56.03
2018-04-18T09:44:16.678Z,56.03
2018-04-18T09:45:16.682Z,55.74
2018-04-18T09:46:16.757Z,55.35
2018-04-18T09:47:16.687Z,55.65
2018-04-18T09:48:16.680Z,56.03
2018-04-18T09:49:16.427Z,56.41
2018-04-18T09:50:16.691Z,56.22
2018-04-18T09:51:16.689Z,56.03
2018-04-18T09:52:16.694Z,55.65
2018-04-18T09:53:16.697Z,55.83
2018-04-18T09:54:16.689Z,56.13
2018-04-18T09:55:16.707Z,56.13
2018-04-18T09:56:16.712Z,56.22
2018-04-18T09:57:16.723Z,56.03
2018-04-18T09:58:16.718Z,56.13
2018-04-18T09:59:16.699Z,55.74
2018-04-18T10:00:16.730Z,55.83
2018-04-18T10:01:16.727Z,55.26
2018-04-18T10:02:16.469Z,54.68
2018-04-18T10:03:16.742Z,54.49
2018-04-18T10:04:16.715Z,54.39
2018-04-18T10:05:16.472Z,54.68
2018-04-18T10:06:16.476Z,55.26
2018-04-18T10:07:16.754Z,55.35
2018-04-18T10:08:16.719Z,54.87
2018-04-18T10:09:16.709Z,54.19
2018-04-18T10:10:16.751Z,53.33
2018-04-18T10:11:16.712Z,53.23
2018-04-18T10:12:16.716Z,53.23
2018-04-18T10:13:16.744Z,52.26
2018-04-18T10:14:16.730Z,51.87
2018-04-18T10:15:16.759Z,52.07
2018-04-18T10:16:16.872Z,52.55
2018-04-18T10:17:16.739Z,53.42
2018-04-18T10:18:16.470Z,54.49
2018-04-18T10:19:16.799Z,54.58
2018-04-18T10:20:16.739Z,53.52
2018-04-18T10:21:16.731Z,53.42
2018-04-18T10:22:16.749Z,52.65
2018-04-18T10:23:16.729Z,53.03
2018-04-18T10:24:16.723Z,53.52
2018-04-18T10:25:16.727Z,53.42
2018-04-18T10:26:16.743Z,54.58
2018-04-18T10:27:16.738Z,54.39
2018-04-18T10:28:16.730Z,54.58
2018-04-18T10:29:16.728Z,53.33
2018-04-18T10:30:16.729Z,53.81
2018-04-18T10:31:16.476Z,53.33
2018-04-18T10:32:16.762Z,53.13
2018-04-18T10:33:16.747Z,53.23
2018-04-18T10:34:16.492Z,53.71
2018-04-18T10:35:16.734Z,53.81
2018-04-18T10:36:16.738Z,54
2018-04-18T10:37:16.496Z,54.58
2018-04-18T10:38:16.909Z,54.39
2018-04-18T10:39:16.752Z,54.1
2018-04-18T10:40:16.485Z,54.19
2018-04-18T10:41:16.738Z,54.58
2018-04-18T10:42:16.739Z,53.71
2018-04-18T10:43:16.754Z,53.42
2018-04-18T10:44:16.500Z,53.42
2018-04-18T10:45:16.495Z,53.13
2018-04-18T10:46:16.745Z,53.13
2018-04-18T10:47:16.755Z,52.65
2018-04-18T10:48:16.749Z,52.36
2018-04-18T10:49:16.496Z,52.45
2018-04-18T10:50:16.748Z,52.55
2018-04-18T10:51:16.746Z,52.75
2018-04-18T10:52:16.756Z,53.52
2018-04-18T10:53:16.754Z,52.75
2018-04-18T10:54:16.499Z,53.52
2018-04-18T10:55:16.771Z,53.13
2018-04-18T10:56:16.754Z,52.55
2018-04-18T10:57:16.755Z,52.75
2018-04-18T10:58:16.759Z,52.45
2018-04-18T10:59:16.765Z,52.07
2018-04-18T11:00:16.809Z,52.07
2018-04-18T11:01:16.760Z,51.68
2018-04-18T11:02:16.764Z,51.39
2018-04-18T11:03:16.766Z,51.49
2018-04-18T11:04:16.767Z,50.91
2018-04-18T11:05:16.766Z,51.1
2018-04-18T11:06:16.759Z,51.29
2018-04-18T11:07:16.766Z,52.17
2018-04-18T11:08:16.548Z,51.49
2018-04-18T11:09:16.515Z,50.74
2018-04-18T11:10:16.765Z,50.35
2018-04-18T11:11:16.780Z,50.13
2018-04-18T11:12:16.801Z,49.68
2018-04-18T11:13:16.904Z,50.74
2018-04-18T11:14:16.528Z,51.32
2018-04-18T11:15:16.791Z,51.49
2018-04-18T11:16:16.802Z,50.45
2018-04-18T11:17:16.787Z,50.35
2018-04-18T11:18:16.824Z,50.35
2018-04-18T11:19:16.799Z,51.03
2018-04-18T11:20:16.785Z,51.23
2018-04-18T11:21:16.781Z,50.74
2018-04-18T11:22:16.791Z,50.74
2018-04-18T11:23:16.788Z,50.55
2018-04-18T11:24:16.787Z,50.26
2018-04-18T11:25:16.798Z,50.35
2018-04-18T11:26:16.812Z,50.26
2018-04-18T11:27:16.795Z,49.97
2018-04-18T11:28:16.534Z,50.07
2018-04-18T11:29:16.822Z,50.35
2018-04-18T11:30:16.784Z,50.35
2018-04-18T11:31:16.789Z,50.07
2018-04-18T11:32:16.792Z,50.26
2018-04-18T11:33:16.796Z,50.65
2018-04-18T11:34:16.787Z,50.65
2018-04-18T11:35:16.794Z,50.26
2018-04-18T11:36:16.797Z,49.77
2018-04-18T11:37:16.791Z,50.16
2018-04-18T11:38:16.538Z,50.07
2018-04-18T11:39:16.792Z,50.07
2018-04-18T11:40:16.802Z,50.16
2018-04-18T11:41:16.793Z,49.87
2018-04-18T11:42:16.815Z,50.45
2018-04-18T11:43:16.798Z,51.13
2018-04-18T11:44:16.811Z,51.42
2018-04-18T11:45:16.814Z,51.61
2018-04-18T11:46:16.800Z,51.23
2018-04-18T11:47:16.816Z,50.74
2018-04-18T11:48:16.804Z,50.74
2018-04-18T11:49:16.801Z,50.74
2018-04-18T11:50:16.803Z,50.26
2018-04-18T11:51:16.859Z,49.6
2018-04-18T11:52:16.845Z,49.49
2018-04-18T11:53:16.557Z,49.97
2018-04-18T11:54:16.810Z,49.68
2018-04-18T11:55:16.554Z,49.77
2018-04-18T11:56:16.811Z,50.35
2018-04-18T11:57:16.560Z,50.48
2018-04-18T11:58:16.810Z,50.76
2018-04-18T11:59:16.560Z,51.03
2018-04-18T12:00:16.818Z,51.15
2018-04-18T12:01:16.818Z,50.38
2018-04-18T12:02:16.869Z,51.06
2018-04-18T12:03:16.818Z,50.38
2018-04-18T12:04:16.921Z,49.8
2018-04-18T12:05:16.564Z,49.99
2018-04-18T12:06:16.819Z,50.09
2018-04-18T12:07:16.818Z,49.51
2018-04-18T12:08:16.821Z,50.09
2018-04-18T12:09:16.884Z,49.41
2018-04-18T12:10:16.828Z,48.74
2018-04-18T12:11:16.829Z,48.74
2018-04-18T12:12:16.834Z,49.41
2018-04-18T12:13:16.836Z,49.41
2018-04-18T12:14:16.856Z,49.6
2018-04-18T12:15:16.833Z,49.6
2018-04-18T12:16:16.830Z,49.7
2018-04-18T12:17:16.831Z,49.6
2018-04-18T12:18:16.829Z,49.6
2018-04-18T12:19:16.834Z,50.09
2018-04-18T12:20:16.832Z,49.6
2018-04-18T12:21:16.841Z,49.51
2018-04-18T12:22:16.580Z,49.6
2018-04-18T12:23:16.839Z,49.51
2018-04-18T12:24:16.846Z,49.8
2018-04-18T12:25:16.842Z,50.18
2018-04-18T12:26:17.097Z,50.57
2018-04-18T12:27:16.878Z,49.99
2018-04-18T12:28:16.854Z,50.28
2018-04-18T12:29:16.857Z,50.57
2018-04-18T12:30:16.857Z,49.6
2018-04-18T12:31:16.854Z,49.99
2018-04-18T12:32:16.849Z,49.99
2018-04-18T12:33:16.592Z,49.41
2018-04-18T12:34:16.848Z,49.9
2018-04-18T12:35:16.885Z,50.09
2018-04-18T12:36:16.868Z,49.99
2018-04-18T12:37:16.851Z,49.6
2018-04-18T12:38:16.895Z,49.8
2018-04-18T12:39:16.873Z,49.99
2018-04-18T12:40:16.868Z,49.9
2018-04-18T12:41:16.872Z,49.51
2018-04-18T12:42:16.905Z,49.99
2018-04-18T12:43:16.901Z,49.6
2018-04-18T12:44:16.885Z,49.6
2018-04-18T12:45:16.884Z,48.74
2018-04-18T12:46:16.879Z,48.64
2018-04-18T12:47:16.883Z,48.54
2018-04-18T12:48:16.880Z,48.35
2018-04-18T12:49:16.891Z,48.83
2018-04-18T12:50:16.938Z,48.83
2018-04-18T12:51:16.905Z,48.54
2018-04-18T12:52:16.906Z,48.64
2018-04-18T12:53:16.915Z,48.44
2018-04-18T12:54:16.918Z,48.83
2018-04-18T12:55:16.897Z,49.51
2018-04-18T12:56:16.657Z,49.44